createdAt,value
2018-12-20T00:01:20.748Z,99881.52
2018-12-20T00:03:49.718Z,99877.54
2018-12-20T00:06:18.813Z,99877.39
2018-12-20T00:08:47.503Z,99883.56
2018-12-20T00:11:16.192Z,99885.11
2018-12-20T00:13:44.738Z,99878.37
2018-12-20T00:16:13.646Z,99887.63
2018-12-20T00:18:42.139Z,99885.88
2018-12-20T00:21:11.005Z,99883.48
2018-12-20T00:23:39.841Z,99883.28
2018-12-20T00:26:08.523Z,99882.89
2018-12-20T00:28:36.857Z,99884.39
2018-12-20T00:31:05.272Z,99891.85
2018-12-20T00:33:34.455Z,99893.86
2018-12-20T00:36:03.056Z,99892.97
2018-12-20T00:38:31.863Z,99888.58
2018-12-20T00:41:00.278Z,99891.38
2018-12-20T00:43:28.770Z,99886.44
2018-12-20T00:45:57.335Z,99890.39
2018-12-20T00:48:25.945Z,99885.42
2018-12-20T00:50:54.824Z,99885.03
2018-12-20T00:53:23.410Z,99886.66
2018-12-20T00:55:51.763Z,99885.54
2018-12-20T00:58:20.341Z,99888.50
2018-12-20T01:00:48.783Z,99884.52
2018-12-20T01:03:17.523Z,99888.50
2018-12-20T01:05:45.924Z,99890.17
2018-12-20T01:08:14.340Z,99891.81
2018-12-20T01:10:42.883Z,99893.80
2018-12-20T01:13:11.480Z,99899.44
2018-12-20T01:15:40.373Z,99902.16
2018-12-20T01:18:08.926Z,99894.14
2018-12-20T01:20:37.606Z,99896.42
2018-12-20T01:23:05.997Z,99903.86
2018-12-20T01:25:34.404Z,99902.45
2018-12-20T01:28:02.781Z,99901.74
2018-12-20T01:30:31.657Z,99900.75
2018-12-20T01:33:00.206Z,99905.41
2018-12-20T01:35:28.860Z,99894.89
2018-12-20T01:37:57.419Z,99900.39
2018-12-20T01:40:25.811Z,99897.31
2018-12-20T01:42:54.304Z,99897.30
2018-12-20T01:45:22.971Z,99889.31
2018-12-20T01:47:51.465Z,99888.05
2018-12-20T01:50:19.894Z,99881.46
2018-12-20T01:52:49.064Z,99889.73
2018-12-20T01:55:18.096Z,99887.32
2018-12-20T01:57:46.819Z,99888.64
2018-12-20T02:00:15.477Z,99885.63
2018-12-20T02:02:44.060Z,99883.72
2018-12-20T02:05:12.663Z,99889.91
2018-12-20T02:07:41.473Z,99887.65
2018-12-20T02:10:10.208Z,99881.61
2018-12-20T02:12:38.961Z,99875.58
2018-12-20T02:15:07.947Z,99886.41
2018-12-20T02:17:36.387Z,99884.66
2018-12-20T02:20:06.273Z,99884.35
2018-12-20T02:22:34.565Z,99878.98
2018-12-20T02:25:03.756Z,99880.64
2018-12-20T02:27:32.563Z,99876.34
2018-12-20T02:30:01.160Z,99866.00
2018-12-20T02:32:29.591Z,99866.66
2018-12-20T02:34:58.067Z,99866.96
2018-12-20T02:37:26.996Z,99863.42
2018-12-20T02:39:55.378Z,99863.00
2018-12-20T02:42:23.768Z,99864.11
2018-12-20T02:44:52.633Z,99858.44
2018-12-20T02:47:23.077Z,99856.69
2018-12-20T02:49:51.386Z,99851.91
2018-12-20T02:52:19.913Z,99855.94
2018-12-20T02:54:48.435Z,99854.25
2018-12-20T02:57:16.774Z,99849.50
2018-12-20T02:59:45.068Z,99853.90
2018-12-20T03:02:13.655Z,99854.76
2018-12-20T03:04:42.180Z,99856.38
2018-12-20T03:07:11.090Z,99853.68
2018-12-20T03:09:39.835Z,99846.34
2018-12-20T03:12:08.490Z,99852.86
2018-12-20T03:14:37.803Z,99846.41
2018-12-20T03:17:06.659Z,99845.69
2018-12-20T03:19:35.278Z,99839.55
2018-12-20T03:22:04.322Z,99847.00
2018-12-20T03:24:33.434Z,99848.61
2018-12-20T03:27:01.988Z,99849.70
2018-12-20T03:29:30.594Z,99850.05
2018-12-20T03:31:59.193Z,99841.25
2018-12-20T03:34:27.606Z,99845.23
2018-12-20T03:36:56.111Z,99846.38
2018-12-20T03:39:24.473Z,99838.86
2018-12-20T03:41:53.078Z,99836.92
2018-12-20T03:44:21.494Z,99843.81
2018-12-20T03:46:49.767Z,99837.27
2018-12-20T03:49:18.320Z,99839.05
2018-12-20T03:51:47.285Z,99844.11
2018-12-20T03:54:15.976Z,99839.03
2018-12-20T03:56:44.431Z,99839.44
2018-12-20T03:59:12.959Z,99847.92
2018-12-20T04:01:41.268Z,99843.61
2018-12-20T04:04:10.366Z,99843.45
2018-12-20T04:06:38.881Z,99844.19
2018-12-20T04:09:07.680Z,99844.11
2018-12-20T04:11:36.035Z,99856.54
2018-12-20T04:14:04.640Z,99854.84
2018-12-20T04:16:33.517Z,99847.00
2018-12-20T04:19:02.096Z,99848.67
2018-12-20T04:21:31.057Z,99855.58
2018-12-20T04:23:59.796Z,99849.34
2018-12-20T04:26:28.436Z,99847.81
2018-12-20T04:28:56.762Z,99853.97
2018-12-20T04:31:25.774Z,99845.53
2018-12-20T04:33:54.397Z,99845.95
2018-12-20T04:36:23.286Z,99846.63
2018-12-20T04:38:52.581Z,99842.45
2018-12-20T04:41:21.120Z,99840.68
2018-12-20T04:43:50.586Z,99845.95
2018-12-20T04:46:19.152Z,99843.61
2018-12-20T04:48:47.813Z,99843.53
2018-12-20T04:51:16.197Z,99837.51
2018-12-20T04:53:45.071Z,99845.64
2018-12-20T04:56:13.716Z,99839.19
2018-12-20T04:58:42.358Z,99839.27
2018-12-20T05:01:10.976Z,99843.45
2018-12-20T05:03:39.743Z,99841.96
2018-12-20T05:06:08.352Z,99834.79
2018-12-20T05:08:37.131Z,99833.16
2018-12-20T05:11:05.542Z,99832.10
2018-12-20T05:13:33.940Z,99831.28
2018-12-20T05:16:03.033Z,99832.50
2018-12-20T05:18:31.453Z,99829.97
2018-12-20T05:20:59.901Z,99828.89
2018-12-20T05:23:28.666Z,99827.50
2018-12-20T05:25:57.384Z,99828.72
2018-12-20T05:28:26.166Z,99829.02
2018-12-20T05:30:55.027Z,99827.84
2018-12-20T05:33:23.570Z,99831.36
2018-12-20T05:35:52.278Z,99835.88
2018-12-20T05:38:20.917Z,99825.29
2018-12-20T05:40:49.376Z,99826.31
2018-12-20T05:43:17.872Z,99832.48
2018-12-20T05:45:46.428Z,99831.01
2018-12-20T05:48:15.140Z,99828.39
2018-12-20T05:50:43.576Z,99828.67
2018-12-20T05:53:11.974Z,99829.28
2018-12-20T05:55:40.518Z,99833.42
2018-12-20T05:58:09.248Z,99831.39
2018-12-20T06:00:37.989Z,99831.39
2018-12-20T06:03:06.618Z,99833.42
2018-12-20T06:05:35.174Z,99836.14
2018-12-20T06:08:04.309Z,99842.27
2018-12-20T06:10:32.854Z,99834.73
2018-12-20T06:13:01.324Z,99843.30
2018-12-20T06:15:29.856Z,99838.15
2018-12-20T06:17:58.250Z,99834.19
2018-12-20T06:20:26.665Z,99835.20
2018-12-20T06:22:55.193Z,99839.23
2018-12-20T06:25:23.616Z,99838.62
2018-12-20T06:27:52.066Z,99837.37
2018-12-20T06:30:20.430Z,99836.35
2018-12-20T06:32:49.510Z,99835.70
2018-12-20T06:35:18.201Z,99832.22
2018-12-20T06:37:47.056Z,99826.22
2018-12-20T06:40:16.492Z,99831.89
2018-12-20T06:42:45.200Z,99829.98
2018-12-20T06:45:13.571Z,99832.98
2018-12-20T06:47:41.995Z,99831.66
2018-12-20T06:50:10.304Z,99831.46
2018-12-20T06:52:38.781Z,99825.49
2018-12-20T06:55:07.299Z,99828.55
2018-12-20T06:57:35.794Z,99823.38
2018-12-20T07:00:06.293Z,99831.82
2018-12-20T07:02:34.970Z,99824.13
2018-12-20T07:05:03.405Z,99838.88
2018-12-20T07:07:34.812Z,99833.09
2018-12-20T07:10:03.714Z,99838.73
2018-12-20T07:12:32.499Z,99834.97
2018-12-20T07:15:01.197Z,99833.75
2018-12-20T07:17:29.600Z,99843.92
2018-12-20T07:19:57.929Z,99841.67
2018-12-20T07:22:26.739Z,99839.56
2018-12-20T07:24:55.183Z,99837.69
2018-12-20T07:27:23.642Z,99841.17
2018-12-20T07:29:52.263Z,99844.39
2018-12-20T07:32:25.188Z,99839.39
2018-12-20T07:34:51.245Z,99846.09
2018-12-20T07:37:19.538Z,99843.23
2018-12-20T07:39:47.880Z,99847.55
2018-12-20T07:42:16.381Z,99853.14
2018-12-20T07:44:45.054Z,99847.33
2018-12-20T07:47:13.513Z,99842.92
2018-12-20T07:49:42.749Z,99844.83
2018-12-20T07:52:11.051Z,99848.64
2018-12-20T07:54:39.377Z,99851.74
2018-12-20T07:57:08.129Z,99854.39
2018-12-20T07:59:36.554Z,99855.70
2018-12-20T08:02:04.995Z,99850.22
2018-12-20T08:04:33.434Z,99862.84
2018-12-20T08:07:01.845Z,99860.55
2018-12-20T08:09:30.394Z,99858.30
2018-12-20T08:11:58.775Z,99865.63
2018-12-20T08:14:27.200Z,99863.30
2018-12-20T08:16:55.494Z,99864.09
2018-12-20T08:19:23.767Z,99869.67
2018-12-20T08:21:52.320Z,99874.96
2018-12-20T08:24:20.766Z,99876.59
2018-12-20T08:26:49.234Z,99875.27
2018-12-20T08:29:17.723Z,99877.70
2018-12-20T08:31:46.171Z,99887.17
2018-12-20T08:34:14.724Z,99886.94
2018-12-20T08:36:43.359Z,99882.34
2018-12-20T08:39:12.322Z,99884.38
2018-12-20T08:41:40.854Z,99881.27
2018-12-20T08:44:10.333Z,99876.72
2018-12-20T08:46:40.832Z,99881.27
2018-12-20T08:49:09.227Z,99871.87
2018-12-20T08:51:37.676Z,99871.95
2018-12-20T08:54:06.006Z,99875.61
2018-12-20T08:56:34.990Z,99870.85
2018-12-20T08:59:03.445Z,99876.22
2018-12-20T09:01:31.770Z,99879.50
2018-12-20T09:04:00.083Z,99875.35
2018-12-20T09:06:28.461Z,99877.52
2018-12-20T09:08:57.061Z,99873.30
2018-12-20T09:11:25.435Z,99889.98
2018-12-20T09:13:53.776Z,99892.67
2018-12-20T09:16:22.061Z,99884.17
2018-12-20T09:18:50.992Z,99883.11
2018-12-20T09:21:19.435Z,99884.30
2018-12-20T09:23:47.833Z,99888.19
2018-12-20T09:26:16.103Z,99896.51
2018-12-20T09:28:44.661Z,99896.34
2018-12-20T09:31:13.344Z,99894.38
2018-12-20T09:33:41.659Z,99890.70
2018-12-20T09:36:09.958Z,99895.57
2018-12-20T09:38:38.345Z,99895.37
2018-12-20T09:41:06.902Z,99891.78
2018-12-20T09:43:35.451Z,99893.62
2018-12-20T09:46:03.896Z,99894.09
2018-12-20T09:48:32.217Z,99888.19
2018-12-20T09:51:00.984Z,99891.06
2018-12-20T09:53:29.500Z,99889.86
2018-12-20T09:55:58.016Z,99893.83
2018-12-20T09:58:26.561Z,99891.19
2018-12-20T10:00:55.251Z,99895.16
2018-12-20T10:03:25.118Z,99895.58
2018-12-20T10:05:53.823Z,99892.30
2018-12-20T10:08:22.272Z,99896.44
2018-12-20T10:10:51.063Z,99889.35
2018-12-20T10:13:19.515Z,99894.47
2018-12-20T10:15:47.961Z,99889.82
2018-12-20T10:18:16.909Z,99884.13
2018-12-20T10:23:31.553Z,99887.42
2018-12-20T10:26:04.900Z,99882.44
2018-12-20T10:28:33.419Z,99885.17
2018-12-20T10:31:01.985Z,99890.03
2018-12-20T10:33:30.643Z,99883.55
2018-12-20T10:35:59.084Z,99885.39
2018-12-20T10:38:27.399Z,99873.69
2018-12-20T10:40:55.879Z,99880.12
2018-12-20T10:43:24.253Z,99878.16
2018-12-20T10:45:52.912Z,99886.31
2018-12-20T10:48:21.365Z,99881.47
2018-12-20T10:50:50.440Z,99885.92
2018-12-20T10:53:18.885Z,99882.70
2018-12-20T10:55:47.798Z,99880.74
2018-12-20T10:58:16.230Z,99882.16
2018-12-20T11:00:50.238Z,99871.50
2018-12-20T11:03:24.185Z,99866.89
2018-12-20T11:05:58.294Z,99874.32
2018-12-20T11:08:28.761Z,99868.36
2018-12-20T11:11:04.695Z,99871.09
2018-12-20T11:13:33.046Z,99865.08
2018-12-20T11:16:01.339Z,99859.48
2018-12-20T11:18:30.295Z,99862.93
2018-12-20T11:20:58.597Z,99854.37
2018-12-20T11:23:26.924Z,99861.94
2018-12-20T11:25:55.210Z,99852.61
2018-12-20T11:28:24.299Z,99853.97
2018-12-20T11:30:52.599Z,99853.58
2018-12-20T11:33:21.218Z,99852.93
2018-12-20T11:35:49.770Z,99855.80
2018-12-20T11:38:18.250Z,99848.05
2018-12-20T11:40:46.745Z,99857.65
2018-12-20T11:43:20.098Z,99854.69
2018-12-20T11:45:48.695Z,99845.94
2018-12-20T11:48:17.116Z,99845.29
2018-12-20T11:50:45.524Z,99844.09
2018-12-20T11:53:14.710Z,99845.70
2018-12-20T11:55:42.989Z,99849.41
2018-12-20T11:58:11.521Z,99844.68
2018-12-20T12:00:40.043Z,99841.02
2018-12-20T12:03:08.626Z,99838.69
2018-12-20T12:05:37.038Z,99839.59
2018-12-20T12:08:05.578Z,99839.08
2018-12-20T12:10:34.160Z,99840.08
2018-12-20T12:13:02.536Z,99837.97
2018-12-20T12:15:30.875Z,99840.91
2018-12-20T12:17:59.165Z,99849.98
2018-12-20T12:20:27.737Z,99843.37
2018-12-20T12:22:56.358Z,99847.95
2018-12-20T12:25:24.785Z,99838.39
2018-12-20T12:27:53.070Z,99835.94
2018-12-20T12:30:21.384Z,99839.67
2018-12-20T12:32:49.744Z,99843.45
2018-12-20T12:35:18.196Z,99840.91
2018-12-20T12:37:46.843Z,99839.80
2018-12-20T12:40:15.189Z,99838.73
2018-12-20T12:42:43.968Z,99843.37
2018-12-20T12:45:12.378Z,99836.96
2018-12-20T12:47:46.215Z,99835.61
2018-12-20T12:50:14.898Z,99836.53
2018-12-20T12:52:43.408Z,99837.34
2018-12-20T12:55:11.825Z,99838.16
2018-12-20T12:57:40.271Z,99840.19
2018-12-20T13:00:13.597Z,99834.07
2018-12-20T13:02:41.971Z,99836.34
2018-12-20T13:05:10.247Z,99832.36
2018-12-20T13:07:38.637Z,99833.06
2018-12-20T13:10:07.908Z,99839.28
2018-12-20T13:12:36.242Z,99840.00
2018-12-20T13:15:08.682Z,99837.56
2018-12-20T13:17:37.217Z,99839.67
2018-12-20T13:20:09.066Z,99832.85
2018-12-20T13:22:37.587Z,99840.61
2018-12-20T13:25:07.060Z,99838.28
2018-12-20T13:27:40.830Z,99833.55
2018-12-20T13:30:10.560Z,99834.62
2018-12-20T13:32:44.275Z,99834.61
2018-12-20T13:35:12.718Z,99837.77
2018-12-20T13:37:41.026Z,99832.55
2018-12-20T13:40:09.618Z,99834.80
2018-12-20T13:42:38.323Z,99831.14
2018-12-20T13:45:07.110Z,99838.88
2018-12-20T13:47:35.639Z,99840.63
2018-12-20T13:50:06.545Z,99839.89
2018-12-20T13:52:35.389Z,99840.73
2018-12-20T13:55:04.256Z,99843.86
2018-12-20T13:57:32.944Z,99841.42
2018-12-20T14:00:01.859Z,99837.94
2018-12-20T14:02:30.237Z,99839.98
2018-12-20T14:04:59.577Z,99843.03
2018-12-20T14:07:27.884Z,99839.45
2018-12-20T14:09:56.646Z,99843.88
2018-12-20T14:12:25.052Z,99842.74
2018-12-20T14:14:53.562Z,99846.66
2018-12-20T14:17:22.003Z,99849.99
2018-12-20T14:19:50.411Z,99842.65
2018-12-20T14:22:18.727Z,99846.21
2018-12-20T14:24:47.383Z,99842.56
2018-12-20T14:27:16.070Z,99845.31
2018-12-20T14:29:44.624Z,99844.39
2018-12-20T14:32:12.889Z,99836.45
2018-12-20T14:34:41.337Z,99836.38
2018-12-20T14:37:09.701Z,99839.81
2018-12-20T14:39:38.569Z,99842.56
2018-12-20T14:42:06.873Z,99839.31
2018-12-20T14:44:35.252Z,99841.02
2018-12-20T14:47:03.706Z,99840.63
2018-12-20T14:49:32.252Z,99836.94
2018-12-20T14:52:00.729Z,99838.27
2018-12-20T14:54:29.074Z,99837.14
2018-12-20T14:56:57.463Z,99841.22
2018-12-20T14:59:25.933Z,99837.98
2018-12-20T15:01:54.507Z,99842.33
2018-12-20T15:04:23.180Z,99839.22
2018-12-20T15:06:51.960Z,99842.33
2018-12-20T15:09:20.467Z,99846.95
2018-12-20T15:11:48.908Z,99842.34
2018-12-20T15:14:17.212Z,99843.47
2018-12-20T15:16:45.519Z,99842.47
2018-12-20T15:19:13.819Z,99844.78
2018-12-20T15:21:42.412Z,99846.31
2018-12-20T15:24:10.954Z,99848.56
2018-12-20T15:26:39.568Z,99851.12
2018-12-20T15:29:08.100Z,99850.41
2018-12-20T15:31:36.681Z,99851.81
2018-12-20T15:34:05.056Z,99847.64
2018-12-20T15:36:33.386Z,99847.84
2018-12-20T15:39:01.663Z,99845.90
2018-12-20T15:41:30.027Z,99854.67
2018-12-20T15:43:59.116Z,99854.06
2018-12-20T15:46:27.459Z,99853.65
2018-12-20T15:49:02.306Z,99856.31
2018-12-20T15:51:31.547Z,99851.11
2018-12-20T15:54:01.225Z,99851.60
2018-12-20T15:56:29.825Z,99852.54
2018-12-20T15:58:58.130Z,99855.38
2018-12-20T16:01:26.654Z,99857.42
2018-12-20T16:03:54.998Z,99860.16
2018-12-20T16:06:23.526Z,99851.83
2018-12-20T16:08:52.131Z,99854.47
2018-12-20T16:11:20.645Z,99858.04
2018-12-20T16:13:48.985Z,99856.09
2018-12-20T16:16:17.357Z,99862.02
2018-12-20T16:18:45.859Z,99857.00
2018-12-20T16:21:14.232Z,99861.78
2018-12-20T16:23:42.562Z,99867.00
2018-12-20T16:26:10.880Z,99862.32
2018-12-20T16:28:44.477Z,99868.01
2018-12-20T16:31:13.090Z,99870.66
2018-12-20T16:33:41.412Z,99876.56
2018-12-20T16:36:09.872Z,99879.42
2018-12-20T16:38:38.168Z,99888.27
2018-12-20T16:41:07.186Z,99884.30
2018-12-20T16:43:35.485Z,99893.17
2018-12-20T16:46:03.815Z,99887.46
2018-12-20T16:48:32.114Z,99886.53
2018-12-20T16:51:00.408Z,99887.97
2018-12-20T16:53:29.634Z,99884.27
2018-12-20T16:55:57.984Z,99886.91
2018-12-20T16:58:26.320Z,99884.48
2018-12-20T17:00:54.898Z,99883.55
2018-12-20T17:03:23.283Z,99888.75
2018-12-20T17:05:51.778Z,99887.52
2018-12-20T17:08:20.923Z,99884.14
2018-12-20T17:10:49.665Z,99881.06
2018-12-20T17:13:18.089Z,99886.16
2018-12-20T17:15:46.600Z,99882.34
2018-12-20T17:18:14.874Z,99886.05
2018-12-20T17:20:43.264Z,99881.97
2018-12-20T17:23:11.725Z,99880.34
2018-12-20T17:25:40.031Z,99883.03
2018-12-20T17:28:08.647Z,99885.88
2018-12-20T17:30:36.968Z,99875.35
2018-12-20T17:33:05.388Z,99884.98
2018-12-20T17:35:33.689Z,99890.70
2018-12-20T17:38:02.180Z,99888.66
2018-12-20T17:40:30.501Z,99884.55
2018-12-20T17:42:59.097Z,99878.13
2018-12-20T17:45:27.404Z,99884.55
2018-12-20T17:47:55.739Z,99868.34
2018-12-20T17:50:24.713Z,99877.33
2018-12-20T17:52:53.667Z,99877.76
2018-12-20T17:55:22.312Z,99875.12
2018-12-20T17:57:50.779Z,99872.10
2018-12-20T18:00:19.206Z,99868.50
2018-12-20T18:02:47.727Z,99868.50
2018-12-20T18:05:16.023Z,99869.09
2018-12-20T18:07:44.495Z,99873.89
2018-12-20T18:10:12.790Z,99866.89
2018-12-20T18:12:41.275Z,99866.46
2018-12-20T18:15:10.271Z,99874.81
2018-12-20T18:17:38.697Z,99867.47
2018-12-20T18:20:08.676Z,99862.63
2018-12-20T18:22:37.486Z,99866.25
2018-12-20T18:25:06.386Z,99861.13
2018-12-20T18:27:34.888Z,99872.27
2018-12-20T18:30:04.220Z,99869.11
2018-12-20T18:32:32.754Z,99865.95
2018-12-20T18:35:01.352Z,99866.30
2018-12-20T18:37:29.806Z,99865.86
2018-12-20T18:39:58.581Z,99871.37
2018-12-20T18:42:27.014Z,99864.92
2018-12-20T18:44:55.377Z,99868.06
2018-12-20T18:47:23.784Z,99871.44
2018-12-20T18:49:52.095Z,99870.70
2018-12-20T18:52:20.674Z,99860.08
2018-12-20T18:54:49.034Z,99867.05
2018-12-20T18:57:17.422Z,99861.61
2018-12-20T18:59:45.779Z,99869.63
2018-12-20T19:02:14.262Z,99875.95
2018-12-20T19:04:42.699Z,99878.27
2018-12-20T19:07:11.120Z,99868.90
2018-12-20T19:09:39.405Z,99867.70
2018-12-20T19:12:07.935Z,99871.87
2018-12-20T19:14:36.220Z,99873.22
2018-12-20T19:17:04.581Z,99870.77
2018-12-20T19:19:33.103Z,99864.37
2018-12-20T19:22:01.939Z,99866.77
2018-12-20T19:24:30.250Z,99866.08
2018-12-20T19:26:58.799Z,99863.14
2018-12-20T19:29:27.212Z,99867.54
2018-12-20T19:31:55.656Z,99868.05
2018-12-20T19:34:24.069Z,99871.53
2018-12-20T19:36:52.458Z,99873.08
2018-12-20T19:39:21.748Z,99868.21
2018-12-20T19:41:50.416Z,99869.25
2018-12-20T19:44:18.975Z,99868.22
2018-12-20T19:46:47.304Z,99867.32
2018-12-20T19:49:15.809Z,99875.42
2018-12-20T19:51:44.236Z,99873.13
2018-12-20T19:54:12.761Z,99870.86
2018-12-20T19:56:41.228Z,99870.00
2018-12-20T19:59:10.450Z,99863.52
2018-12-20T20:01:39.391Z,99873.35
2018-12-20T20:04:07.933Z,99868.09
2018-12-20T20:06:36.383Z,99867.32
2018-12-20T20:09:07.177Z,99872.98
2018-12-20T20:11:35.664Z,99868.81
2018-12-20T20:14:04.869Z,99867.98
2018-12-20T20:16:33.411Z,99865.14
2018-12-20T20:19:01.938Z,99860.95
2018-12-20T20:21:30.280Z,99857.15
2018-12-20T20:23:59.466Z,99849.47
2018-12-20T20:26:27.986Z,99847.19
2018-12-20T20:28:56.437Z,99838.25
2018-12-20T20:31:25.118Z,99845.16
2018-12-20T20:33:53.648Z,99850.30
2018-12-20T20:36:21.982Z,99843.11
2018-12-20T20:38:50.771Z,99846.78
2018-12-20T20:41:19.170Z,99846.69
2018-12-20T20:43:47.542Z,99853.00
2018-12-20T20:46:15.932Z,99840.00
2018-12-20T20:48:45.316Z,99845.95
2018-12-20T20:51:14.124Z,99839.95
2018-12-20T20:53:42.616Z,99840.89
2018-12-20T20:56:11.032Z,99842.89
2018-12-20T20:58:39.494Z,99845.45
2018-12-20T21:01:08.034Z,99845.51
2018-12-20T21:03:36.957Z,99843.08
2018-12-20T21:06:05.525Z,99845.53
2018-12-20T21:08:33.852Z,99847.81
2018-12-20T21:11:07.715Z,99842.73
2018-12-20T21:13:36.037Z,99841.33
2018-12-20T21:16:04.456Z,99840.09
2018-12-20T21:18:32.738Z,99840.30
2018-12-20T21:21:01.084Z,99829.67
2018-12-20T21:23:29.840Z,99823.49
2018-12-20T21:25:58.328Z,99825.92
2018-12-20T21:28:26.677Z,99828.61
2018-12-20T21:30:55.043Z,99823.66
2018-12-20T21:33:23.366Z,99830.62
2018-12-20T21:35:51.790Z,99826.86
2018-12-20T21:38:20.499Z,99822.09
2018-12-20T21:40:48.995Z,99844.26
2018-12-20T21:43:17.350Z,99835.09
2018-12-20T21:45:45.844Z,99837.02
2018-12-20T21:48:15.068Z,99838.38
2018-12-20T21:50:43.879Z,99844.57
2018-12-20T21:53:12.764Z,99843.23
2018-12-20T21:55:41.101Z,99839.19
2018-12-20T21:58:09.566Z,99840.64
2018-12-20T22:00:37.923Z,99845.29
2018-12-20T22:03:06.336Z,99841.23
2018-12-20T22:05:35.471Z,99839.92
2018-12-20T22:08:04.206Z,99840.66
2018-12-20T22:10:32.578Z,99837.27
2018-12-20T22:13:02.416Z,99828.87
2018-12-20T22:15:31.036Z,99827.12
2018-12-20T22:17:59.398Z,99820.89
2018-12-20T22:20:28.607Z,99825.59
2018-12-20T22:22:56.943Z,99828.02
2018-12-20T22:25:25.270Z,99830.88
2018-12-20T22:27:54.170Z,99834.64
2018-12-20T22:30:22.662Z,99838.94
2018-12-20T22:32:50.986Z,99826.05
2018-12-20T22:35:19.336Z,99828.56
2018-12-20T22:37:48.323Z,99827.42
2018-12-20T22:40:17.175Z,99832.59
2018-12-20T22:42:45.684Z,99828.23
2018-12-20T22:45:15.059Z,99828.41
2018-12-20T22:47:43.768Z,99825.03
2018-12-20T22:50:12.322Z,99830.66
2018-12-20T22:52:40.764Z,99832.88
2018-12-20T22:55:09.257Z,99829.16
2018-12-20T22:57:37.813Z,99832.92
2018-12-20T23:00:07.357Z,99826.19
2018-12-20T23:02:35.644Z,99838.55
2018-12-20T23:05:05.038Z,99831.30
2018-12-20T23:07:33.641Z,99831.00
2018-12-20T23:10:02.075Z,99835.66
2018-12-20T23:12:30.469Z,99827.84
2018-12-20T23:14:58.782Z,99829.25
2018-12-20T23:17:27.055Z,99820.59
2018-12-20T23:19:55.389Z,99809.92
2018-12-20T23:22:23.700Z,99809.20
2018-12-20T23:24:52.045Z,99812.48
2018-12-20T23:27:20.632Z,99804.42
2018-12-20T23:29:48.924Z,99807.70
2018-12-20T23:32:17.417Z,99802.28
2018-12-20T23:34:45.700Z,99798.58
2018-12-20T23:37:14.123Z,99797.16
2018-12-20T23:39:42.552Z,99796.15
2018-12-20T23:42:10.998Z,99798.91
2018-12-20T23:44:39.279Z,99797.08
2018-12-20T23:47:07.765Z,99798.31
2018-12-20T23:49:36.162Z,99797.08
2018-12-20T23:52:04.492Z,99795.97
2018-12-20T23:54:32.778Z,99801.95
2018-12-20T23:57:01.894Z,99801.56
2018-12-20T23:59:30.176Z,99792.09
